sensor_id;sensor_type;location;lat;lon;timestamp;temperature;humidity
35603;DHT22;21725;50.836;4.368;2024-02-21T00:02:05;11.60;99.90
35603;DHT22;21725;50.836;4.368;2024-02-21T00:05:06;11.70;99.90
35603;DHT22;21725;50.836;4.368;2024-02-21T00:08:07;11.60;99.90
35603;DHT22;21725;50.836;4.368;2024-02-21T00:11:08;11.40;99.90
35603;DHT22;21725;50.836;4.368;2024-02-21T00:14:09;11.50;99.90
35603;DHT22;21725;50.836;4.368;2024-02-21T00:17:09;11.40;99.90
35603;DHT22;21725;50.836;4.368;2024-02-21T00:20:10;11.50;99.90
35603;DHT22;21725;50.836;4.368;2024-02-21T00:23:11;11.50;99.90
35603;DHT22;21725;50.836;4.368;2024-02-21T00:26:13;11.60;99.90
35603;DHT22;21725;50.836;4.368;2024-02-21T00:29:14;11.60;99.90
35603;DHT22;21725;50.836;4.368;2024-02-21T00:32:14;11.40;99.90
35603;DHT22;21725;50.836;4.368;2024-02-21T00:35:15;11.40;99.90
35603;DHT22;21725;50.836;4.368;2024-02-21T00:38:16;11.50;99.90
35603;DHT22;21725;50.836;4.368;2024-02-21T00:41:17;11.70;99.90
35603;DHT22;21725;50.836;4.368;2024-02-21T00:44:18;11.80;99.90
35603;DHT22;21725;50.836;4.368;2024-02-21T00:47:18;11.50;99.90
35603;DHT22;21725;50.836;4.368;2024-02-21T00:50:19;11.40;99.90
35603;DHT22;21725;50.836;4.368;2024-02-21T00:53:20;11.50;99.90
35603;DHT22;21725;50.836;4.368;2024-02-21T00:56:21;11.80;99.90
35603;DHT22;21725;50.836;4.368;2024-02-21T00:59:21;11.70;99.90
35603;DHT22;21725;50.836;4.368;2024-02-21T01:02:22;11.60;99.90
35603;DHT22;21725;50.836;4.368;2024-02-21T01:05:23;11.80;99.90
35603;DHT22;21725;50.836;4.368;2024-02-21T01:08:24;11.80;99.90
35603;DHT22;21725;50.836;4.368;2024-02-21T01:11:24;12.00;99.90
35603;DHT22;21725;50.836;4.368;2024-02-21T01:14:25;11.90;99.90
35603;DHT22;21725;50.836;4.368;2024-02-21T01:17:26;11.90;99.90
35603;DHT22;21725;50.836;4.368;2024-02-21T01:20:26;11.80;99.90
35603;DHT22;21725;50.836;4.368;2024-02-21T01:23:27;12.00;99.90
35603;DHT22;21725;50.836;4.368;2024-02-21T01:26:28;11.90;99.90
35603;DHT22;21725;50.836;4.368;2024-02-21T01:29:28;11.80;99.90
35603;DHT22;21725;50.836;4.368;2024-02-21T01:32:29;12.00;99.90
35603;DHT22;21725;50.836;4.368;2024-02-21T01:35:30;12.20;99.90
35603;DHT22;21725;50.836;4.368;2024-02-21T01:38:31;12.00;99.90
35603;DHT22;21725;50.836;4.368;2024-02-21T01:41:32;11.90;99.90
35603;DHT22;21725;50.836;4.368;2024-02-21T01:44:33;11.70;99.90
35603;DHT22;21725;50.836;4.368;2024-02-21T01:47:34;11.70;99.90
35603;DHT22;21725;50.836;4.368;2024-02-21T01:50:35;11.80;99.90
35603;DHT22;21725;50.836;4.368;2024-02-21T01:53:42;11.80;99.90
35603;DHT22;21725;50.836;4.368;2024-02-21T01:56:44;11.50;99.90
35603;DHT22;21725;50.836;4.368;2024-02-21T01:59:45;11.30;99.90
35603;DHT22;21725;50.836;4.368;2024-02-21T02:02:47;11.40;99.90
35603;DHT22;21725;50.836;4.368;2024-02-21T02:05:49;11.40;99.90
35603;DHT22;21725;50.836;4.368;2024-02-21T02:08:49;11.60;99.90
35603;DHT22;21725;50.836;4.368;2024-02-21T02:11:51;11.90;99.90
35603;DHT22;21725;50.836;4.368;2024-02-21T02:15:02;11.80;99.90
35603;DHT22;21725;50.836;4.368;2024-02-21T02:18:05;11.90;99.90
35603;DHT22;21725;50.836;4.368;2024-02-21T02:21:13;11.80;99.90
35603;DHT22;21725;50.836;4.368;2024-02-21T02:24:21;11.90;99.90
35603;DHT22;21725;50.836;4.368;2024-02-21T02:27:22;11.80;99.90
35603;DHT22;21725;50.836;4.368;2024-02-21T02:30:23;11.80;99.90
35603;DHT22;21725;50.836;4.368;2024-02-21T02:33:24;11.80;99.90
35603;DHT22;21725;50.836;4.368;2024-02-21T02:36:24;12.00;99.90
35603;DHT22;21725;50.836;4.368;2024-02-21T02:39:25;12.00;99.90
35603;DHT22;21725;50.836;4.368;2024-02-21T02:42:26;12.00;99.90
35603;DHT22;21725;50.836;4.368;2024-02-21T02:45:26;12.00;99.90
35603;DHT22;21725;50.836;4.368;2024-02-21T02:48:27;11.90;99.90
35603;DHT22;21725;50.836;4.368;2024-02-21T02:51:28;11.90;99.90
35603;DHT22;21725;50.836;4.368;2024-02-21T02:54:28;11.90;99.90
35603;DHT22;21725;50.836;4.368;2024-02-21T02:57:29;12.20;99.90
35603;DHT22;21725;50.836;4.368;2024-02-21T03:00:30;12.10;99.90
35603;DHT22;21725;50.836;4.368;2024-02-21T03:03:31;12.00;99.90
35603;DHT22;21725;50.836;4.368;2024-02-21T03:06:31;11.90;99.90
35603;DHT22;21725;50.836;4.368;2024-02-21T03:09:32;11.60;99.90
35603;DHT22;21725;50.836;4.368;2024-02-21T03:12:33;11.50;99.90
35603;DHT22;21725;50.836;4.368;2024-02-21T03:15:33;11.80;99.90
35603;DHT22;21725;50.836;4.368;2024-02-21T03:18:34;11.80;99.90
35603;DHT22;21725;50.836;4.368;2024-02-21T03:21:35;11.70;99.90
35603;DHT22;21725;50.836;4.368;2024-02-21T03:24:35;11.80;99.90
35603;DHT22;21725;50.836;4.368;2024-02-21T03:27:36;11.90;99.90
35603;DHT22;21725;50.836;4.368;2024-02-21T03:30:37;12.00;99.90
35603;DHT22;21725;50.836;4.368;2024-02-21T03:33:38;11.80;99.90
35603;DHT22;21725;50.836;4.368;2024-02-21T03:36:39;11.70;99.90
35603;DHT22;21725;50.836;4.368;2024-02-21T03:39:40;11.70;99.90
35603;DHT22;21725;50.836;4.368;2024-02-21T03:42:41;11.80;99.90
35603;DHT22;21725;50.836;4.368;2024-02-21T03:45:42;11.90;99.90
35603;DHT22;21725;50.836;4.368;2024-02-21T03:48:42;11.10;99.90
35603;DHT22;21725;50.836;4.368;2024-02-21T03:51:43;11.80;99.90
35603;DHT22;21725;50.836;4.368;2024-02-21T03:54:44;11.80;99.90
35603;DHT22;21725;50.836;4.368;2024-02-21T03:57:45;9.80;99.90
35603;DHT22;21725;50.836;4.368;2024-02-21T04:00:46;11.80;99.90
35603;DHT22;21725;50.836;4.368;2024-02-21T04:03:47;11.80;99.90
35603;DHT22;21725;50.836;4.368;2024-02-21T04:06:48;12.20;99.90
35603;DHT22;21725;50.836;4.368;2024-02-21T04:09:49;12.00;99.90
35603;DHT22;21725;50.836;4.368;2024-02-21T04:12:50;11.90;99.90
35603;DHT22;21725;50.836;4.368;2024-02-21T04:15:51;12.30;99.90
35603;DHT22;21725;50.836;4.368;2024-02-21T04:18:51;12.30;99.90
35603;DHT22;21725;50.836;4.368;2024-02-21T04:21:52;12.20;99.90
35603;DHT22;21725;50.836;4.368;2024-02-21T04:24:53;12.00;99.90
35603;DHT22;21725;50.836;4.368;2024-02-21T04:27:54;11.90;99.90
35603;DHT22;21725;50.836;4.368;2024-02-21T04:30:54;11.80;99.90
35603;DHT22;21725;50.836;4.368;2024-02-21T04:33:56;11.80;99.90
35603;DHT22;21725;50.836;4.368;2024-02-21T04:36:57;12.10;99.90
35603;DHT22;21725;50.836;4.368;2024-02-21T04:39:57;12.10;99.90
35603;DHT22;21725;50.836;4.368;2024-02-21T04:42:58;9.10;99.90
35603;DHT22;21725;50.836;4.368;2024-02-21T04:45:59;12.10;99.90
35603;DHT22;21725;50.836;4.368;2024-02-21T04:49:00;12.00;99.90
35603;DHT22;21725;50.836;4.368;2024-02-21T04:52:01;11.90;99.90
35603;DHT22;21725;50.836;4.368;2024-02-21T04:55:02;12.00;99.90
35603;DHT22;21725;50.836;4.368;2024-02-21T04:58:03;11.80;99.90
35603;DHT22;21725;50.836;4.368;2024-02-21T05:01:04;11.90;99.90
35603;DHT22;21725;50.836;4.368;2024-02-21T05:04:04;11.80;99.90
35603;DHT22;21725;50.836;4.368;2024-02-21T05:07:05;11.80;99.90
35603;DHT22;21725;50.836;4.368;2024-02-21T05:10:07;12.00;99.90
35603;DHT22;21725;50.836;4.368;2024-02-21T05:13:08;11.90;99.90
35603;DHT22;21725;50.836;4.368;2024-02-21T05:16:09;11.60;99.90
35603;DHT22;21725;50.836;4.368;2024-02-21T05:19:10;11.70;99.90
35603;DHT22;21725;50.836;4.368;2024-02-21T05:22:11;11.90;99.90
35603;DHT22;21725;50.836;4.368;2024-02-21T05:25:11;11.90;99.90
35603;DHT22;21725;50.836;4.368;2024-02-21T05:28:12;12.00;99.90
35603;DHT22;21725;50.836;4.368;2024-02-21T05:31:13;11.90;99.90
35603;DHT22;21725;50.836;4.368;2024-02-21T05:34:14;11.80;99.90
35603;DHT22;21725;50.836;4.368;2024-02-21T05:37:15;9.40;99.90
35603;DHT22;21725;50.836;4.368;2024-02-21T05:40:16;11.80;99.90
35603;DHT22;21725;50.836;4.368;2024-02-21T05:43:17;8.80;99.90
35603;DHT22;21725;50.836;4.368;2024-02-21T05:46:19;11.90;99.90
35603;DHT22;21725;50.836;4.368;2024-02-21T05:49:20;11.80;99.90
35603;DHT22;21725;50.836;4.368;2024-02-21T05:52:21;12.50;99.90
35603;DHT22;21725;50.836;4.368;2024-02-21T05:55:22;11.80;99.90
35603;DHT22;21725;50.836;4.368;2024-02-21T05:58:23;11.90;99.90
35603;DHT22;21725;50.836;4.368;2024-02-21T06:01:24;12.00;99.90
35603;DHT22;21725;50.836;4.368;2024-02-21T06:04:24;12.10;99.90
35603;DHT22;21725;50.836;4.368;2024-02-21T06:07:25;12.10;99.90
35603;DHT22;21725;50.836;4.368;2024-02-21T06:10:26;12.00;99.90
35603;DHT22;21725;50.836;4.368;2024-02-21T06:13:27;12.20;99.90
35603;DHT22;21725;50.836;4.368;2024-02-21T06:16:28;12.20;99.90
35603;DHT22;21725;50.836;4.368;2024-02-21T06:19:28;12.10;99.90
35603;DHT22;21725;50.836;4.368;2024-02-21T06:22:30;12.30;99.90
35603;DHT22;21725;50.836;4.368;2024-02-21T06:25:31;12.20;99.90
35603;DHT22;21725;50.836;4.368;2024-02-21T06:28:31;12.20;99.90
35603;DHT22;21725;50.836;4.368;2024-02-21T06:31:32;12.00;99.90
35603;DHT22;21725;50.836;4.368;2024-02-21T06:34:33;12.00;99.90
35603;DHT22;21725;50.836;4.368;2024-02-21T06:37:34;12.30;99.90
35603;DHT22;21725;50.836;4.368;2024-02-21T06:40:34;12.30;99.90
35603;DHT22;21725;50.836;4.368;2024-02-21T06:43:39;12.10;99.90
35603;DHT22;21725;50.836;4.368;2024-02-21T06:46:40;11.90;99.90
35603;DHT22;21725;50.836;4.368;2024-02-21T06:49:40;11.90;99.90
35603;DHT22;21725;50.836;4.368;2024-02-21T06:52:42;11.70;99.90
35603;DHT22;21725;50.836;4.368;2024-02-21T06:55:42;11.70;99.90
35603;DHT22;21725;50.836;4.368;2024-02-21T06:58:43;11.80;99.90
35603;DHT22;21725;50.836;4.368;2024-02-21T07:01:49;11.90;99.90
35603;DHT22;21725;50.836;4.368;2024-02-21T07:04:49;12.10;99.90
35603;DHT22;21725;50.836;4.368;2024-02-21T07:07:50;12.20;99.90
35603;DHT22;21725;50.836;4.368;2024-02-21T07:10:51;12.00;99.90
35603;DHT22;21725;50.836;4.368;2024-02-21T07:13:52;11.90;99.90
35603;DHT22;21725;50.836;4.368;2024-02-21T07:16:53;12.00;99.90
35603;DHT22;21725;50.836;4.368;2024-02-21T07:19:54;11.70;99.90
35603;DHT22;21725;50.836;4.368;2024-02-21T07:22:57;11.80;99.90
35603;DHT22;21725;50.836;4.368;2024-02-21T07:25:57;11.80;99.90
35603;DHT22;21725;50.836;4.368;2024-02-21T07:28:58;11.90;99.90
35603;DHT22;21725;50.836;4.368;2024-02-21T07:31:59;11.80;99.90
35603;DHT22;21725;50.836;4.368;2024-02-21T07:35:00;11.70;99.90
35603;DHT22;21725;50.836;4.368;2024-02-21T07:38:00;11.80;99.90
35603;DHT22;21725;50.836;4.368;2024-02-21T07:41:01;11.50;99.90
35603;DHT22;21725;50.836;4.368;2024-02-21T07:44:02;11.80;99.90
35603;DHT22;21725;50.836;4.368;2024-02-21T07:47:03;11.80;99.90
35603;DHT22;21725;50.836;4.368;2024-02-21T07:50:05;12.00;99.90
35603;DHT22;21725;50.836;4.368;2024-02-21T07:53:06;12.00;99.90
35603;DHT22;21725;50.836;4.368;2024-02-21T07:56:06;11.90;99.90
35603;DHT22;21725;50.836;4.368;2024-02-21T07:59:07;11.80;99.90
35603;DHT22;21725;50.836;4.368;2024-02-21T08:02:08;11.80;99.90
35603;DHT22;21725;50.836;4.368;2024-02-21T08:05:09;11.90;99.90
35603;DHT22;21725;50.836;4.368;2024-02-21T08:08:12;12.00;99.90
35603;DHT22;21725;50.836;4.368;2024-02-21T08:11:18;11.90;99.90
35603;DHT22;21725;50.836;4.368;2024-02-21T08:14:19;12.20;99.90
35603;DHT22;21725;50.836;4.368;2024-02-21T08:17:20;12.30;99.90
35603;DHT22;21725;50.836;4.368;2024-02-21T08:20:20;12.20;99.90
35603;DHT22;21725;50.836;4.368;2024-02-21T08:23:23;12.30;99.90
35603;DHT22;21725;50.836;4.368;2024-02-21T08:26:24;12.30;99.90
35603;DHT22;21725;50.836;4.368;2024-02-21T08:29:28;12.30;99.90
35603;DHT22;21725;50.836;4.368;2024-02-21T08:32:29;12.40;99.90
35603;DHT22;21725;50.836;4.368;2024-02-21T08:35:29;12.40;99.90
35603;DHT22;21725;50.836;4.368;2024-02-21T08:38:30;12.20;99.90
35603;DHT22;21725;50.836;4.368;2024-02-21T08:41:31;12.40;99.90
35603;DHT22;21725;50.836;4.368;2024-02-21T08:44:32;12.40;99.90
35603;DHT22;21725;50.836;4.368;2024-02-21T08:47:33;12.30;99.90
35603;DHT22;21725;50.836;4.368;2024-02-21T08:50:35;12.30;99.90
35603;DHT22;21725;50.836;4.368;2024-02-21T08:53:36;12.00;99.90
35603;DHT22;21725;50.836;4.368;2024-02-21T08:56:38;12.20;99.90
35603;DHT22;21725;50.836;4.368;2024-02-21T08:59:39;12.10;99.90
35603;DHT22;21725;50.836;4.368;2024-02-21T09:02:40;12.20;99.90
35603;DHT22;21725;50.836;4.368;2024-02-21T09:05:43;12.10;99.90
35603;DHT22;21725;50.836;4.368;2024-02-21T09:08:44;12.10;99.90
35603;DHT22;21725;50.836;4.368;2024-02-21T09:11:45;10.90;99.90
35603;DHT22;21725;50.836;4.368;2024-02-21T09:14:49;12.20;99.90
35603;DHT22;21725;50.836;4.368;2024-02-21T09:17:51;12.10;99.90
35603;DHT22;21725;50.836;4.368;2024-02-21T09:20:51;12.20;99.90
35603;DHT22;21725;50.836;4.368;2024-02-21T09:23:52;12.20;99.90
35603;DHT22;21725;50.836;4.368;2024-02-21T09:26:53;12.20;99.90
35603;DHT22;21725;50.836;4.368;2024-02-21T09:29:53;12.30;99.90
35603;DHT22;21725;50.836;4.368;2024-02-21T09:32:54;12.50;99.90
35603;DHT22;21725;50.836;4.368;2024-02-21T09:35:55;11.70;99.90
35603;DHT22;21725;50.836;4.368;2024-02-21T09:38:56;12.30;99.90
35603;DHT22;21725;50.836;4.368;2024-02-21T09:42:01;12.30;99.90
35603;DHT22;21725;50.836;4.368;2024-02-21T09:45:28;12.50;99.90
35603;DHT22;21725;50.836;4.368;2024-02-21T09:51:43;12.50;99.90
35603;DHT22;21725;50.836;4.368;2024-02-21T09:54:45;12.60;99.90
35603;DHT22;21725;50.836;4.368;2024-02-21T09:57:46;12.60;99.90
35603;DHT22;21725;50.836;4.368;2024-02-21T10:00:47;12.50;99.90
35603;DHT22;21725;50.836;4.368;2024-02-21T10:03:48;12.80;99.90
35603;DHT22;21725;50.836;4.368;2024-02-21T10:06:50;12.70;99.90
35603;DHT22;21725;50.836;4.368;2024-02-21T10:10:02;12.70;99.90
35603;DHT22;21725;50.836;4.368;2024-02-21T10:13:03;12.80;99.90
35603;DHT22;21725;50.836;4.368;2024-02-21T10:16:07;13.00;99.90
35603;DHT22;21725;50.836;4.368;2024-02-21T10:19:18;12.80;99.90
35603;DHT22;21725;50.836;4.368;2024-02-21T10:22:19;12.90;99.90
35603;DHT22;21725;50.836;4.368;2024-02-21T10:25:21;12.90;99.90
35603;DHT22;21725;50.836;4.368;2024-02-21T10:28:23;12.80;99.90
35603;DHT22;21725;50.836;4.368;2024-02-21T10:31:25;12.90;99.90
35603;DHT22;21725;50.836;4.368;2024-02-21T10:34:26;13.00;99.90
35603;DHT22;21725;50.836;4.368;2024-02-21T10:37:27;12.90;99.90
35603;DHT22;21725;50.836;4.368;2024-02-21T10:40:29;12.90;99.90
35603;DHT22;21725;50.836;4.368;2024-02-21T10:43:38;13.00;99.90
35603;DHT22;21725;50.836;4.368;2024-02-21T10:46:40;12.70;99.90
35603;DHT22;21725;50.836;4.368;2024-02-21T10:49:42;13.10;99.90
35603;DHT22;21725;50.836;4.368;2024-02-21T10:52:55;13.20;99.90
35603;DHT22;21725;50.836;4.368;2024-02-21T10:56:02;13.00;99.90
35603;DHT22;21725;50.836;4.368;2024-02-21T10:59:07;12.90;99.90
35603;DHT22;21725;50.836;4.368;2024-02-21T11:02:08;13.10;99.90
35603;DHT22;21725;50.836;4.368;2024-02-21T11:05:09;12.80;99.90
35603;DHT22;21725;50.836;4.368;2024-02-21T11:08:10;12.80;99.90
35603;DHT22;21725;50.836;4.368;2024-02-21T11:11:13;13.10;99.90
35603;DHT22;21725;50.836;4.368;2024-02-21T11:14:20;13.40;99.90
35603;DHT22;21725;50.836;4.368;2024-02-21T11:17:21;13.40;99.90
35603;DHT22;21725;50.836;4.368;2024-02-21T11:20:34;13.00;99.90
35603;DHT22;21725;50.836;4.368;2024-02-21T11:23:35;12.90;99.90
35603;DHT22;21725;50.836;4.368;2024-02-21T11:26:38;12.90;99.90
35603;DHT22;21725;50.836;4.368;2024-02-21T11:30:11;13.00;99.90
35603;DHT22;21725;50.836;4.368;2024-02-21T11:33:12;13.10;99.90
35603;DHT22;21725;50.836;4.368;2024-02-21T11:36:24;13.10;99.90
35603;DHT22;21725;50.836;4.368;2024-02-21T11:39:26;13.00;99.90
35603;DHT22;21725;50.836;4.368;2024-02-21T11:42:27;12.60;99.90
35603;DHT22;21725;50.836;4.368;2024-02-21T11:45:29;12.70;99.90
35603;DHT22;21725;50.836;4.368;2024-02-21T11:48:31;12.80;99.90
35603;DHT22;21725;50.836;4.368;2024-02-21T11:51:32;12.80;99.90
35603;DHT22;21725;50.836;4.368;2024-02-21T11:54:33;12.70;99.90
35603;DHT22;21725;50.836;4.368;2024-02-21T11:57:34;12.70;99.90
35603;DHT22;21725;50.836;4.368;2024-02-21T12:00:36;12.50;99.90
35603;DHT22;21725;50.836;4.368;2024-02-21T12:03:37;12.60;99.90
35603;DHT22;21725;50.836;4.368;2024-02-21T12:06:38;12.80;99.90
35603;DHT22;21725;50.836;4.368;2024-02-21T12:09:41;12.90;99.90
35603;DHT22;21725;50.836;4.368;2024-02-21T12:12:42;12.80;99.90
35603;DHT22;21725;50.836;4.368;2024-02-21T12:15:47;12.50;99.90
35603;DHT22;21725;50.836;4.368;2024-02-21T12:18:52;12.00;99.90
35603;DHT22;21725;50.836;4.368;2024-02-21T12:21:54;12.80;99.90
35603;DHT22;21725;50.836;4.368;2024-02-21T12:24:58;12.80;99.90
35603;DHT22;21725;50.836;4.368;2024-02-21T12:27:59;12.70;99.90
35603;DHT22;21725;50.836;4.368;2024-02-21T12:31:01;12.50;99.90
35603;DHT22;21725;50.836;4.368;2024-02-21T12:34:02;12.50;99.90
35603;DHT22;21725;50.836;4.368;2024-02-21T12:37:03;12.80;99.90
35603;DHT22;21725;50.836;4.368;2024-02-21T12:40:08;12.90;99.90
35603;DHT22;21725;50.836;4.368;2024-02-21T12:43:09;13.10;99.90
35603;DHT22;21725;50.836;4.368;2024-02-21T12:46:10;13.00;99.90
35603;DHT22;21725;50.836;4.368;2024-02-21T12:49:11;12.90;99.90
35603;DHT22;21725;50.836;4.368;2024-02-21T12:52:12;12.80;99.90
35603;DHT22;21725;50.836;4.368;2024-02-21T12:55:13;13.00;99.90
35603;DHT22;21725;50.836;4.368;2024-02-21T12:58:14;13.00;99.90
35603;DHT22;21725;50.836;4.368;2024-02-21T13:01:15;12.90;99.90
35603;DHT22;21725;50.836;4.368;2024-02-21T13:04:16;12.80;99.90
35603;DHT22;21725;50.836;4.368;2024-02-21T13:07:20;12.90;99.90
35603;DHT22;21725;50.836;4.368;2024-02-21T13:10:21;12.80;99.90
35603;DHT22;21725;50.836;4.368;2024-02-21T13:13:22;12.70;99.90
35603;DHT22;21725;50.836;4.368;2024-02-21T13:16:23;12.80;99.90
35603;DHT22;21725;50.836;4.368;2024-02-21T13:19:23;13.10;99.90
35603;DHT22;21725;50.836;4.368;2024-02-21T13:22:24;12.90;99.90
35603;DHT22;21725;50.836;4.368;2024-02-21T13:25:27;12.90;99.90
35603;DHT22;21725;50.836;4.368;2024-02-21T13:28:28;13.10;99.90
35603;DHT22;21725;50.836;4.368;2024-02-21T13:31:28;13.00;99.90
35603;DHT22;21725;50.836;4.368;2024-02-21T13:34:29;13.00;99.90
35603;DHT22;21725;50.836;4.368;2024-02-21T13:37:31;13.20;99.90
35603;DHT22;21725;50.836;4.368;2024-02-21T13:40:32;13.10;99.90
35603;DHT22;21725;50.836;4.368;2024-02-21T13:43:33;13.30;99.90
35603;DHT22;21725;50.836;4.368;2024-02-21T13:46:34;13.10;99.90
35603;DHT22;21725;50.836;4.368;2024-02-21T13:49:34;13.10;99.90
35603;DHT22;21725;50.836;4.368;2024-02-21T13:52:36;13.10;99.90
35603;DHT22;21725;50.836;4.368;2024-02-21T13:55:37;13.20;99.90
35603;DHT22;21725;50.836;4.368;2024-02-21T13:58:38;13.10;99.90
35603;DHT22;21725;50.836;4.368;2024-02-21T14:01:39;13.00;99.90
35603;DHT22;21725;50.836;4.368;2024-02-21T14:04:39;13.00;99.90
35603;DHT22;21725;50.836;4.368;2024-02-21T14:07:40;12.80;99.90
35603;DHT22;21725;50.836;4.368;2024-02-21T14:10:41;12.60;99.90
35603;DHT22;21725;50.836;4.368;2024-02-21T14:13:42;12.40;99.90
35603;DHT22;21725;50.836;4.368;2024-02-21T14:16:42;12.50;99.90
35603;DHT22;21725;50.836;4.368;2024-02-21T14:19:47;12.60;99.90
35603;DHT22;21725;50.836;4.368;2024-02-21T14:22:47;12.50;99.90
35603;DHT22;21725;50.836;4.368;2024-02-21T14:25:48;12.30;99.90
35603;DHT22;21725;50.836;4.368;2024-02-21T14:28:50;12.30;99.90
35603;DHT22;21725;50.836;4.368;2024-02-21T14:31:51;12.10;99.90
35603;DHT22;21725;50.836;4.368;2024-02-21T14:34:52;12.30;99.90
35603;DHT22;21725;50.836;4.368;2024-02-21T14:37:53;11.90;99.90
35603;DHT22;21725;50.836;4.368;2024-02-21T14:40:56;11.90;99.90
35603;DHT22;21725;50.836;4.368;2024-02-21T14:43:56;12.00;99.90
35603;DHT22;21725;50.836;4.368;2024-02-21T14:47:00;12.00;99.90
35603;DHT22;21725;50.836;4.368;2024-02-21T14:50:02;11.90;99.90
35603;DHT22;21725;50.836;4.368;2024-02-21T14:53:04;11.80;99.90
35603;DHT22;21725;50.836;4.368;2024-02-21T14:56:05;11.90;99.90
35603;DHT22;21725;50.836;4.368;2024-02-21T14:59:07;12.00;99.90
35603;DHT22;21725;50.836;4.368;2024-02-21T15:02:08;12.00;99.90
35603;DHT22;21725;50.836;4.368;2024-02-21T15:05:09;12.10;99.90
35603;DHT22;21725;50.836;4.368;2024-02-21T15:08:12;11.80;99.90
35603;DHT22;21725;50.836;4.368;2024-02-21T15:11:17;11.60;99.90
35603;DHT22;21725;50.836;4.368;2024-02-21T15:14:18;11.70;99.90
35603;DHT22;21725;50.836;4.368;2024-02-21T15:17:19;11.80;99.90
35603;DHT22;21725;50.836;4.368;2024-02-21T15:20:20;12.00;99.90
35603;DHT22;21725;50.836;4.368;2024-02-21T15:23:20;12.00;99.90
35603;DHT22;21725;50.836;4.368;2024-02-21T15:26:22;12.10;99.90
35603;DHT22;21725;50.836;4.368;2024-02-21T15:29:23;11.90;99.90
35603;DHT22;21725;50.836;4.368;2024-02-21T15:32:24;12.00;99.90
35603;DHT22;21725;50.836;4.368;2024-02-21T15:35:25;11.80;99.90
35603;DHT22;21725;50.836;4.368;2024-02-21T15:38:25;11.90;99.90
35603;DHT22;21725;50.836;4.368;2024-02-21T15:41:26;11.90;99.90
35603;DHT22;21725;50.836;4.368;2024-02-21T15:44:27;12.00;99.90
35603;DHT22;21725;50.836;4.368;2024-02-21T15:47:28;11.90;99.90
35603;DHT22;21725;50.836;4.368;2024-02-21T15:50:28;9.50;99.90
35603;DHT22;21725;50.836;4.368;2024-02-21T15:53:30;11.80;99.90
35603;DHT22;21725;50.836;4.368;2024-02-21T15:56:30;11.90;99.90
35603;DHT22;21725;50.836;4.368;2024-02-21T15:59:34;11.80;99.90
35603;DHT22;21725;50.836;4.368;2024-02-21T16:02:34;11.70;99.90
35603;DHT22;21725;50.836;4.368;2024-02-21T16:05:35;11.80;99.90
35603;DHT22;21725;50.836;4.368;2024-02-21T16:08:36;12.10;99.90
35603;DHT22;21725;50.836;4.368;2024-02-21T16:11:41;11.90;99.90
35603;DHT22;21725;50.836;4.368;2024-02-21T16:14:41;11.70;99.90
35603;DHT22;21725;50.836;4.368;2024-02-21T16:17:42;11.70;99.90
35603;DHT22;21725;50.836;4.368;2024-02-21T16:20:43;11.80;99.90
35603;DHT22;21725;50.836;4.368;2024-02-21T16:23:47;11.70;99.90
35603;DHT22;21725;50.836;4.368;2024-02-21T16:26:47;13.20;99.90
35603;DHT22;21725;50.836;4.368;2024-02-21T16:29:48;11.80;99.90
35603;DHT22;21725;50.836;4.368;2024-02-21T16:32:49;11.80;99.90
35603;DHT22;21725;50.836;4.368;2024-02-21T16:35:50;11.90;99.90
35603;DHT22;21725;50.836;4.368;2024-02-21T16:38:51;11.90;99.90
35603;DHT22;21725;50.836;4.368;2024-02-21T16:41:52;11.90;99.90
35603;DHT22;21725;50.836;4.368;2024-02-21T16:44:56;11.90;99.90
35603;DHT22;21725;50.836;4.368;2024-02-21T16:47:57;12.10;99.90
35603;DHT22;21725;50.836;4.368;2024-02-21T16:50:57;11.90;99.90
35603;DHT22;21725;50.836;4.368;2024-02-21T16:53:58;10.80;99.90
35603;DHT22;21725;50.836;4.368;2024-02-21T16:57:01;11.80;99.90
35603;DHT22;21725;50.836;4.368;2024-02-21T17:00:01;12.00;99.90
35603;DHT22;21725;50.836;4.368;2024-02-21T17:03:11;11.80;99.90
35603;DHT22;21725;50.836;4.368;2024-02-21T17:06:12;11.90;99.90
35603;DHT22;21725;50.836;4.368;2024-02-21T17:09:14;11.90;99.90
35603;DHT22;21725;50.836;4.368;2024-02-21T17:12:17;11.70;99.90
35603;DHT22;21725;50.836;4.368;2024-02-21T17:15:19;11.70;99.90
35603;DHT22;21725;50.836;4.368;2024-02-21T17:18:20;11.80;99.90
35603;DHT22;21725;50.836;4.368;2024-02-21T17:21:20;11.80;99.90
35603;DHT22;21725;50.836;4.368;2024-02-21T17:24:21;11.70;99.90
35603;DHT22;21725;50.836;4.368;2024-02-21T17:27:23;11.80;99.90
35603;DHT22;21725;50.836;4.368;2024-02-21T17:30:24;11.80;99.90
35603;DHT22;21725;50.836;4.368;2024-02-21T17:33:25;11.80;99.90
35603;DHT22;21725;50.836;4.368;2024-02-21T17:36:25;11.50;99.90
35603;DHT22;21725;50.836;4.368;2024-02-21T17:39:26;11.70;99.90
35603;DHT22;21725;50.836;4.368;2024-02-21T17:42:27;11.80;99.90
35603;DHT22;21725;50.836;4.368;2024-02-21T17:45:27;11.90;99.90
35603;DHT22;21725;50.836;4.368;2024-02-21T17:48:28;12.00;99.90
35603;DHT22;21725;50.836;4.368;2024-02-21T17:51:29;12.20;99.90
35603;DHT22;21725;50.836;4.368;2024-02-21T17:54:30;12.20;99.90
35603;DHT22;21725;50.836;4.368;2024-02-21T17:57:31;12.00;99.90
35603;DHT22;21725;50.836;4.368;2024-02-21T18:00:32;11.90;99.90
35603;DHT22;21725;50.836;4.368;2024-02-21T18:03:32;11.80;99.90
35603;DHT22;21725;50.836;4.368;2024-02-21T18:06:33;11.80;99.90
35603;DHT22;21725;50.836;4.368;2024-02-21T18:09:34;11.70;99.90
35603;DHT22;21725;50.836;4.368;2024-02-21T18:12:35;9.20;99.90
35603;DHT22;21725;50.836;4.368;2024-02-21T18:15:36;11.60;99.90
35603;DHT22;21725;50.836;4.368;2024-02-21T18:18:37;11.70;99.90
35603;DHT22;21725;50.836;4.368;2024-02-21T18:21:38;11.70;99.90
35603;DHT22;21725;50.836;4.368;2024-02-21T18:24:40;11.70;99.90
35603;DHT22;21725;50.836;4.368;2024-02-21T18:27:41;11.90;99.90
35603;DHT22;21725;50.836;4.368;2024-02-21T18:30:42;12.00;99.90
35603;DHT22;21725;50.836;4.368;2024-02-21T18:33:42;12.00;99.90
35603;DHT22;21725;50.836;4.368;2024-02-21T18:36:45;11.80;99.90
35603;DHT22;21725;50.836;4.368;2024-02-21T18:39:48;12.00;99.90
35603;DHT22;21725;50.836;4.368;2024-02-21T18:42:49;11.90;99.90
35603;DHT22;21725;50.836;4.368;2024-02-21T18:45:50;12.00;99.90
35603;DHT22;21725;50.836;4.368;2024-02-21T18:48:51;12.20;99.90
35603;DHT22;21725;50.836;4.368;2024-02-21T18:51:52;12.00;99.90
35603;DHT22;21725;50.836;4.368;2024-02-21T18:54:52;11.80;99.90
35603;DHT22;21725;50.836;4.368;2024-02-21T18:57:53;11.60;99.90
35603;DHT22;21725;50.836;4.368;2024-02-21T19:00:54;11.60;99.90
35603;DHT22;21725;50.836;4.368;2024-02-21T19:03:54;11.70;99.90
35603;DHT22;21725;50.836;4.368;2024-02-21T19:06:55;11.80;99.90
35603;DHT22;21725;50.836;4.368;2024-02-21T19:09:56;11.70;99.90